»·PEaware :: N5VG KBZN-KGTF

N5VG :: KBZN-KGTF

FLIGHT INFORMATION

Flight Status: Arrived
Operator: Privately registered:
United States
More flights under this callsign
Pilot: John C. (9438)
Aircraft: SOCATA TBM-900
(TBM9)
More flights by this aircraft type
Origin: KBZN Gallatin
United States
Destination: KGTF Great Falls Intl
United States
More flights between these airports :: More routes between these airports
Route: NORTH WEST
File this flight plan on PilotEdge
Remarks:
Altitude:
(Current/Filed)
10,500ft
Speed:
(Current/Filed)
220kts
Departed: 06-Jul-19 09:38 AM
Arrived: 06-Jul-19 10:20 AM
Distance/Time
Traveled:
103nm/0:42
Distance/Time
To Go:
Arrived

Flight Plot

Page will automatically refresh every two minutes.

Flight plan parsing failed; only flown route is shown


Map Options




Map Legend


Flown Route
Filed Route
Departure Airport
Arrival Airport
Navaid (VOR, NDB)
Fix

Horizontal Profiles

Position Reports

Time Latitude Longitude Heading Altitude Ground
Speed
06-Jul-19 08:46 45.772875 -111.152013 318 4474ft 0kts
06-Jul-19 08:47 45.772875 -111.152013 318 4474ft 0kts
06-Jul-19 08:48 45.772875 -111.152013 318 4474ft 0kts
06-Jul-19 08:49 45.772875 -111.152013 318 4474ft 0kts
06-Jul-19 08:50 45.772875 -111.152013 318 4474ft 0kts
06-Jul-19 08:51 45.772875 -111.152013 318 4474ft 0kts
06-Jul-19 08:52 45.772875 -111.152013 318 4474ft 0kts
06-Jul-19 08:53 45.772875 -111.152013 318 4474ft 0kts
06-Jul-19 08:54 45.772875 -111.152013 318 4474ft 0kts
06-Jul-19 08:55 45.772875 -111.152013 318 4474ft 0kts
06-Jul-19 08:56 45.772875 -111.152013 318 4474ft 0kts
06-Jul-19 08:57 45.772875 -111.152013 318 4474ft 0kts
06-Jul-19 08:58 45.772875 -111.152013 318 4474ft 0kts
06-Jul-19 08:59 45.772875 -111.152013 318 4474ft 0kts
06-Jul-19 09:00 45.772875 -111.152013 318 4474ft 0kts
06-Jul-19 09:01 45.772875 -111.152013 318 4474ft 0kts
06-Jul-19 09:02 45.772875 -111.152013 318 4474ft 0kts
06-Jul-19 09:03 45.772875 -111.152013 318 4474ft 0kts
06-Jul-19 09:04 45.772875 -111.152013 318 4474ft 0kts
06-Jul-19 09:05 45.772875 -111.152013 318 4474ft 0kts
06-Jul-19 09:06 45.772875 -111.152013 318 4474ft 0kts
06-Jul-19 09:07 45.772875 -111.152013 318 4474ft 0kts
06-Jul-19 09:08 45.772875 -111.152013 318 4474ft 0kts
06-Jul-19 09:09 45.772875 -111.152013 318 4474ft 0kts
06-Jul-19 09:10 45.772875 -111.152013 318 4474ft 0kts
06-Jul-19 09:11 45.772875 -111.152013 318 4474ft 0kts
06-Jul-19 09:12 45.772875 -111.152013 318 4474ft 0kts
06-Jul-19 09:13 45.772875 -111.152013 318 4474ft 0kts
06-Jul-19 09:14 45.772875 -111.152013 318 4474ft 0kts
06-Jul-19 09:15 45.772875 -111.152013 318 4474ft 0kts
06-Jul-19 09:16 45.772875 -111.152013 318 4474ft 0kts
06-Jul-19 09:17 45.772875 -111.152013 318 4474ft 0kts
06-Jul-19 09:18 45.772875 -111.152013 318 4474ft 0kts
06-Jul-19 09:19 45.772875 -111.152013 318 4474ft 0kts
06-Jul-19 09:20 45.772875 -111.152013 318 4474ft 0kts
06-Jul-19 09:21 45.772875 -111.152013 318 4474ft 0kts
06-Jul-19 09:22 45.772875 -111.152013 318 4474ft 0kts
06-Jul-19 09:23 45.772875 -111.152013 318 4474ft 0kts
06-Jul-19 09:24 45.772875 -111.152013 318 4474ft 0kts
06-Jul-19 09:25 45.772875 -111.152013 318 4474ft 0kts
06-Jul-19 09:26 45.772875 -111.152014 318 4474ft 0kts
06-Jul-19 09:27 45.772875 -111.152014 318 4474ft 0kts
06-Jul-19 09:28 45.772875 -111.152014 318 4474ft 0kts
06-Jul-19 09:29 45.772875 -111.152014 318 4474ft 0kts
06-Jul-19 09:30 45.772875 -111.152014 318 4474ft 0kts
06-Jul-19 09:31 45.772875 -111.152014 318 4474ft 0kts
06-Jul-19 09:32 45.773677 -111.151620 72 4474ft 16kts
06-Jul-19 09:33 45.771528 -111.147609 137 4474ft 12kts
06-Jul-19 09:34 45.769494 -111.143589 51 4474ft 12kts
06-Jul-19 09:35 45.769773 -111.143148 49 4474ft 0kts
06-Jul-19 09:36 45.771081 -111.142947 320 4474ft 27kts
06-Jul-19 09:37 45.790934 -111.175194 308 4977ft 156kts
06-Jul-19 09:38 45.823970 -111.230476 313 5625ft 209kts
06-Jul-19 09:39 45.864130 -111.283000 332 7229ft 192kts
06-Jul-19 09:40 45.915111 -111.314342 342 8262ft 206kts
06-Jul-19 09:41 45.974017 -111.340519 343 8514ft 236kts
06-Jul-19 09:42 46.039840 -111.369747 343 8504ft 250kts
06-Jul-19 09:44 46.107828 -111.399987 343 8494ft 254kts
06-Jul-19 09:45 46.176184 -111.430346 343 8469ft 256kts
06-Jul-19 09:46 46.245538 -111.461136 343 8451ft 262kts
06-Jul-19 09:47 46.315962 -111.492394 343 8445ft 262kts
06-Jul-19 09:48 46.385083 -111.528050 321 8431ft 262kts
06-Jul-19 09:49 46.440103 -111.598747 317 8446ft 262kts
06-Jul-19 09:50 46.494476 -111.670740 316 8445ft 262kts
06-Jul-19 09:51 46.548775 -111.742566 316 8445ft 262kts
06-Jul-19 09:52 46.602594 -111.813707 316 8445ft 262kts
06-Jul-19 09:53 46.657056 -111.885505 316 8449ft 262kts
06-Jul-19 09:54 46.715581 -111.949334 334 8457ft 263kts
06-Jul-19 09:55 46.782886 -111.994119 335 8458ft 264kts
06-Jul-19 09:56 46.856017 -112.011833 354 8455ft 264kts
06-Jul-19 09:57 46.930260 -112.021174 355 8453ft 265kts
06-Jul-19 09:58 47.004603 -112.030528 355 8453ft 266kts
06-Jul-19 09:59 47.072235 -111.993167 42 8448ft 263kts
06-Jul-19 10:00 47.127741 -111.924324 42 8446ft 264kts
06-Jul-19 10:01 47.183480 -111.851513 47 8446ft 263kts
06-Jul-19 10:02 47.235823 -111.775017 46 8444ft 263kts
06-Jul-19 10:03 47.288345 -111.698291 46 8445ft 263kts
06-Jul-19 10:03 47.331978 -111.634829 46 8505ft 258kts
06-Jul-19 10:04 47.389661 -111.574270 33 8502ft 248kts
06-Jul-19 10:06 47.470615 -111.572976 356 8470ft 253kts
06-Jul-19 10:06 47.529430 -111.578047 356 7635ft 251kts
06-Jul-19 10:07 47.599348 -111.583859 356 6683ft 247kts
06-Jul-19 10:08 47.664629 -111.589081 356 6188ft 216kts
06-Jul-19 10:09 47.719511 -111.593449 356 6236ft 172kts
06-Jul-19 10:10 47.738996 -111.559472 140 6195ft 127kts
06-Jul-19 10:11 47.708816 -111.532243 150 6199ft 125kts
06-Jul-19 10:12 47.678832 -111.505559 150 6272ft 115kts
06-Jul-19 10:13 47.650527 -111.478650 143 5741ft 125kts
06-Jul-19 10:14 47.625648 -111.442878 135 5135ft 125kts
06-Jul-19 10:15 47.601569 -111.407216 147 4918ft 132kts
06-Jul-19 10:16 47.569959 -111.379096 147 4377ft 124kts
06-Jul-19 10:17 47.536402 -111.368839 172 3895ft 121kts
06-Jul-19 10:18 47.504466 -111.369729 210 3957ft 118kts
06-Jul-19 10:19 47.484938 -111.372791 182 3679ft 35kts
06-Jul-19 10:20 47.483722 -111.366456 87 3679ft 21kts
06-Jul-19 10:21 47.483184 -111.358220 13 3679ft 8kts
06-Jul-19 10:22 47.483350 -111.358434 265 3679ft 0kts
06-Jul-19 10:23 47.483350 -111.358434 265 3679ft 0kts

Navigation Log

Ident Type
Flight plan parsing failed, navigation log unavailable